createdAt,value
2023-05-08T00:01:12.206Z,15.86
2023-05-08T00:03:14.017Z,15.84
2023-05-08T00:05:15.974Z,15.82
2023-05-08T00:07:17.576Z,15.82
2023-05-08T00:09:20.968Z,15.77
2023-05-08T00:11:22.638Z,15.70
2023-05-08T00:13:24.463Z,15.67
2023-05-08T00:15:26.169Z,15.59
2023-05-08T00:17:28.064Z,15.48
2023-05-08T00:19:29.706Z,15.47
2023-05-08T00:21:31.366Z,15.47
2023-05-08T00:23:33.571Z,15.49
2023-05-08T00:25:35.201Z,15.49
2023-05-08T00:27:36.780Z,15.47
2023-05-08T00:29:40.271Z,15.49
2023-05-08T00:31:41.972Z,15.40
2023-05-08T00:33:43.599Z,15.36
2023-05-08T00:35:45.283Z,15.36
2023-05-08T00:37:46.855Z,15.36
2023-05-08T00:39:48.439Z,15.33
2023-05-08T00:41:50.036Z,15.29
2023-05-08T00:43:51.684Z,15.29
2023-05-08T00:45:54.782Z,15.30
2023-05-08T00:47:56.431Z,15.28
2023-05-08T00:49:59.289Z,15.28
2023-05-08T00:52:01.162Z,15.26
2023-05-08T00:54:03.176Z,15.24
2023-05-08T00:56:05.747Z,15.22
2023-05-08T00:58:07.312Z,15.20
2023-05-08T01:00:10.034Z,15.21
2023-05-08T01:02:12.060Z,15.20
2023-05-08T01:04:14.389Z,15.03
2023-05-08T01:06:16.008Z,14.93
2023-05-08T01:08:17.663Z,14.93
2023-05-08T01:10:19.229Z,14.94
2023-05-08T01:12:27.237Z,14.93
2023-05-08T01:15:02.407Z,14.95
2023-05-08T01:17:11.708Z,14.98
2023-05-08T01:19:41.092Z,14.99
2023-05-08T01:21:57.365Z,14.97
2023-05-08T01:24:26.840Z,14.94
2023-05-08T01:26:43.033Z,14.89
2023-05-08T01:29:26.355Z,14.84
2023-05-08T01:31:36.660Z,14.85
2023-05-08T01:34:12.298Z,14.88
2023-05-08T01:36:34.533Z,14.81
2023-05-08T01:39:00.582Z,14.76
2023-05-08T01:41:14.625Z,14.77
2023-05-08T01:43:26.897Z,14.76
2023-05-08T01:45:37.535Z,14.68
2023-05-08T01:47:39.579Z,14.67
2023-05-08T01:49:46.643Z,14.69
2023-05-08T01:52:00.991Z,14.71
2023-05-08T01:56:14.040Z,14.71
2023-05-08T01:58:16.475Z,14.70
2023-05-08T02:00:20.482Z,14.70
2023-05-08T02:02:22.718Z,14.68
2023-05-08T02:04:25.810Z,14.66
2023-05-08T02:06:28.507Z,14.67
2023-05-08T02:08:32.038Z,14.66
2023-05-08T02:10:33.829Z,14.66
2023-05-08T02:12:37.387Z,14.66
2023-05-08T02:14:40.418Z,14.63
2023-05-08T02:16:43.077Z,14.64
2023-05-08T02:18:52.392Z,14.62
2023-05-08T02:20:54.894Z,14.56
2023-05-08T02:22:57.095Z,14.43
2023-05-08T02:24:58.903Z,14.39
2023-05-08T02:27:00.897Z,14.35
2023-05-08T02:29:03.459Z,14.32
2023-05-08T02:31:05.404Z,14.32
2023-05-08T02:33:08.578Z,14.29
2023-05-08T02:35:13.371Z,14.26
2023-05-08T02:37:15.601Z,14.26
2023-05-08T02:39:18.223Z,14.28
2023-05-08T02:41:22.333Z,14.32
2023-05-08T02:43:24.421Z,14.31
2023-05-08T02:45:29.392Z,14.33
2023-05-08T02:47:58.535Z,14.30
2023-05-08T02:50:09.981Z,14.31
2023-05-08T02:52:23.117Z,14.28
2023-05-08T02:54:38.664Z,14.13
2023-05-08T02:57:11.051Z,13.76
2023-05-08T02:59:17.903Z,13.51
2023-05-08T03:01:29.146Z,13.41
2023-05-08T03:03:45.688Z,13.30
2023-05-08T03:06:10.803Z,13.17
2023-05-08T03:08:16.138Z,13.19
2023-05-08T03:10:19.355Z,13.31
2023-05-08T03:12:23.481Z,13.42
2023-05-08T03:14:26.726Z,13.55
2023-05-08T03:16:32.409Z,13.66
2023-05-08T03:18:37.144Z,13.75
2023-05-08T03:20:40.875Z,13.83
2023-05-08T03:22:43.935Z,13.92
2023-05-08T03:24:46.792Z,13.99
2023-05-08T03:26:48.464Z,14.03
2023-05-08T03:28:50.678Z,14.06
2023-05-08T03:30:53.284Z,14.11
2023-05-08T03:32:55.290Z,14.14
2023-05-08T03:34:59.024Z,14.19
2023-05-08T03:37:00.700Z,14.19
2023-05-08T03:39:02.293Z,14.21
2023-05-08T03:41:04.430Z,13.99
2023-05-08T03:43:10.516Z,13.93
2023-05-08T03:45:13.581Z,13.67
2023-05-08T03:47:16.770Z,13.53
2023-05-08T03:49:18.939Z,13.30
2023-05-08T03:51:21.366Z,13.41
2023-05-08T03:53:23.318Z,13.57
2023-05-08T03:55:25.027Z,13.51
2023-05-08T03:57:28.240Z,13.67
2023-05-08T03:59:39.614Z,13.83
2023-05-08T04:01:55.306Z,14.00
2023-05-08T04:04:04.380Z,14.07
2023-05-08T04:06:18.591Z,14.02
2023-05-08T04:08:21.580Z,14.06
2023-05-08T04:10:25.050Z,14.17
2023-05-08T04:12:59.449Z,14.32
2023-05-08T04:15:05.360Z,14.46
2023-05-08T04:17:10.072Z,14.54
2023-05-08T04:19:15.942Z,14.62
2023-05-08T04:21:23.507Z,14.68
2023-05-08T04:23:25.599Z,14.71
2023-05-08T04:25:28.068Z,14.78
2023-05-08T04:27:30.464Z,14.83
2023-05-08T04:29:33.006Z,14.86
2023-05-08T04:31:35.219Z,14.84
2023-05-08T04:33:36.844Z,14.81
2023-05-08T04:35:38.490Z,14.88
2023-05-08T04:37:41.646Z,14.97
2023-05-08T04:39:43.850Z,15.02
2023-05-08T04:41:45.600Z,15.11
2023-05-08T04:43:47.472Z,15.17
2023-05-08T04:45:49.103Z,15.21
2023-05-08T04:47:50.851Z,15.22
2023-05-08T04:49:52.558Z,15.29
2023-05-08T04:51:54.106Z,15.30
2023-05-08T04:53:55.697Z,15.33
2023-05-08T04:55:58.707Z,15.42
2023-05-08T04:58:00.396Z,15.45
2023-05-08T05:00:02.047Z,15.38
2023-05-08T05:02:06.077Z,15.28
2023-05-08T05:04:08.051Z,15.28
2023-05-08T05:06:09.736Z,15.32
2023-05-08T05:08:11.327Z,15.37
2023-05-08T05:10:13.015Z,15.45
2023-05-08T05:12:14.646Z,15.55
2023-05-08T05:14:16.311Z,15.64
2023-05-08T05:16:17.952Z,15.69
2023-05-08T05:18:20.006Z,15.72
2023-05-08T05:20:21.585Z,15.81
2023-05-08T05:22:23.423Z,15.89
2023-05-08T05:24:25.065Z,15.96
2023-05-08T05:26:26.731Z,15.83
2023-05-08T05:28:28.304Z,15.60
2023-05-08T05:30:30.004Z,15.51
2023-05-08T05:32:31.666Z,15.44
2023-05-08T05:34:33.246Z,15.58
2023-05-08T05:36:34.799Z,15.76
2023-05-08T05:38:36.784Z,15.89
2023-05-08T05:40:38.392Z,15.89
2023-05-08T05:42:39.975Z,15.97
2023-05-08T05:44:44.796Z,16.05
2023-05-08T05:46:46.439Z,16.20
2023-05-08T05:48:48.057Z,16.40
2023-05-08T05:50:49.690Z,16.50
2023-05-08T05:52:51.321Z,16.52
2023-05-08T05:54:52.930Z,16.43
2023-05-08T05:56:55.027Z,16.30
2023-05-08T05:58:56.679Z,16.07
2023-05-08T06:01:01.054Z,15.84
2023-05-08T06:03:03.266Z,16.02
2023-05-08T06:05:05.281Z,16.20
2023-05-08T06:07:06.829Z,16.36
2023-05-08T06:09:08.497Z,16.26
2023-05-08T06:11:10.205Z,16.27
2023-05-08T06:13:11.821Z,16.12
2023-05-08T06:15:15.202Z,16.27
2023-05-08T06:17:17.535Z,16.40
2023-05-08T06:19:19.132Z,16.55
2023-05-08T06:21:20.809Z,16.70
2023-05-08T06:23:22.356Z,16.74
2023-05-08T06:25:24.279Z,16.79
2023-05-08T06:27:26.426Z,16.86
2023-05-08T06:29:28.025Z,16.95
2023-05-08T06:31:29.668Z,16.99
2023-05-08T06:33:31.614Z,16.74
2023-05-08T06:35:33.284Z,16.45
2023-05-08T06:37:34.906Z,16.10
2023-05-08T06:39:36.666Z,16.10
2023-05-08T06:41:38.446Z,16.12
2023-05-08T06:43:40.009Z,16.20
2023-05-08T06:45:43.428Z,16.42
2023-05-08T06:47:45.110Z,16.73
2023-05-08T06:49:46.726Z,17.01
2023-05-08T06:51:48.258Z,17.22
2023-05-08T06:53:49.812Z,17.36
2023-05-08T06:55:51.713Z,17.54
2023-05-08T06:57:53.269Z,17.67
2023-05-08T06:59:54.937Z,17.71
2023-05-08T07:01:56.575Z,17.34
2023-05-08T07:03:58.282Z,17.22
2023-05-08T07:05:59.875Z,16.83
2023-05-08T07:08:01.496Z,16.64
2023-05-08T07:10:04.027Z,16.77
2023-05-08T07:12:06.378Z,16.88
2023-05-08T07:14:08.052Z,17.05
2023-05-08T07:16:11.036Z,17.02
2023-05-08T07:18:12.751Z,16.92
2023-05-08T07:20:14.411Z,16.71
2023-05-08T07:22:16.439Z,16.88
2023-05-08T07:24:18.051Z,17.13
2023-05-08T07:26:19.647Z,17.22
2023-05-08T07:28:21.257Z,17.27
2023-05-08T07:30:22.908Z,17.16
2023-05-08T07:32:25.016Z,17.05
2023-05-08T07:34:26.822Z,16.99
2023-05-08T07:36:28.481Z,16.72
2023-05-08T07:38:30.147Z,16.49
2023-05-08T07:40:31.805Z,16.52
2023-05-08T07:42:47.321Z,16.26
2023-05-08T07:44:54.955Z,16.53
2023-05-08T07:46:57.295Z,16.92
2023-05-08T07:48:58.945Z,16.97
2023-05-08T07:51:00.507Z,16.72
2023-05-08T07:53:02.061Z,16.65
2023-05-08T07:55:04.276Z,16.97
2023-05-08T07:57:05.979Z,17.19
2023-05-08T07:59:07.542Z,17.07
2023-05-08T08:01:09.167Z,16.84
2023-05-08T08:03:10.792Z,16.94
2023-05-08T08:05:13.043Z,17.33
2023-05-08T08:07:14.886Z,17.77
2023-05-08T08:09:16.517Z,18.02
2023-05-08T08:11:18.157Z,18.33
2023-05-08T08:13:19.826Z,18.37
2023-05-08T08:15:21.440Z,18.09
2023-05-08T08:17:23.341Z,18.20
2023-05-08T08:19:25.067Z,17.66
2023-05-08T08:21:27.218Z,17.50
2023-05-08T08:23:28.793Z,17.64
2023-05-08T08:25:30.471Z,18.08
2023-05-08T08:27:32.292Z,18.47
2023-05-08T08:29:34.075Z,18.67
2023-05-08T08:31:35.899Z,18.89
2023-05-08T08:33:37.594Z,18.92
2023-05-08T08:35:39.223Z,19.02
2023-05-08T08:37:40.927Z,19.28
2023-05-08T08:39:42.516Z,19.17
2023-05-08T08:41:44.729Z,19.18
2023-05-08T08:43:46.434Z,19.21
2023-05-08T08:45:48.467Z,18.89
2023-05-08T08:47:52.450Z,18.71
2023-05-08T08:49:55.161Z,18.70
2023-05-08T08:51:59.793Z,18.92
2023-05-08T08:54:09.484Z,18.93
2023-05-08T08:56:11.641Z,19.21
2023-05-08T08:58:39.238Z,19.46
2023-05-08T09:00:41.686Z,19.54
2023-05-08T09:02:43.510Z,19.48
2023-05-08T09:04:45.469Z,19.18
2023-05-08T09:06:47.218Z,18.89
2023-05-08T09:08:49.463Z,18.93
2023-05-08T09:10:52.562Z,18.97
2023-05-08T09:12:54.407Z,19.02
2023-05-08T09:14:56.006Z,18.99
2023-05-08T09:16:57.952Z,18.83
2023-05-08T09:18:59.555Z,18.95
2023-05-08T09:21:01.911Z,19.16
2023-05-08T09:23:03.667Z,19.34
2023-05-08T09:25:06.365Z,19.55
2023-05-08T09:27:21.414Z,19.79
2023-05-08T09:29:23.055Z,19.94
2023-05-08T09:31:35.179Z,19.84
2023-05-08T09:33:44.098Z,19.43
2023-05-08T09:35:48.451Z,19.29
2023-05-08T09:37:50.082Z,19.08
2023-05-08T09:39:51.638Z,18.95
2023-05-08T09:42:03.860Z,19.00
2023-05-08T09:44:07.207Z,18.96
2023-05-08T09:46:23.165Z,18.94
2023-05-08T09:48:38.442Z,19.04
2023-05-08T09:50:41.552Z,18.96
2023-05-08T09:52:49.386Z,18.99
2023-05-08T09:55:00.380Z,18.94
2023-05-08T09:57:12.099Z,18.91
2023-05-08T09:59:27.954Z,18.95
2023-05-08T10:01:35.670Z,19.15
2023-05-08T10:03:48.321Z,19.05
2023-05-08T10:05:49.999Z,19.31
2023-05-08T10:07:52.280Z,19.47
2023-05-08T10:10:01.788Z,19.18
2023-05-08T10:12:03.729Z,19.09
2023-05-08T10:14:05.356Z,19.23
2023-05-08T10:16:08.234Z,19.52
2023-05-08T10:18:12.188Z,19.79
2023-05-08T10:20:14.855Z,20.05
2023-05-08T10:22:18.744Z,20.13
2023-05-08T10:24:22.044Z,20.14
2023-05-08T10:26:28.124Z,20.34
2023-05-08T10:28:36.549Z,20.23
2023-05-08T10:30:39.390Z,19.96
2023-05-08T10:32:44.406Z,20.01
2023-05-08T10:34:47.479Z,19.77
2023-05-08T10:36:51.654Z,19.79
2023-05-08T10:38:55.013Z,19.86
2023-05-08T10:41:01.346Z,20.17
2023-05-08T10:43:05.430Z,20.44
2023-05-08T10:45:08.312Z,20.62
2023-05-08T10:47:22.904Z,20.57
2023-05-08T10:49:59.749Z,20.74
2023-05-08T10:52:41.360Z,20.48
2023-05-08T10:54:52.112Z,20.65
2023-05-08T10:57:08.081Z,20.34
2023-05-08T10:59:20.738Z,20.23
2023-05-08T11:01:22.331Z,20.64
2023-05-08T11:03:31.911Z,20.70
2023-05-08T11:05:48.587Z,20.56
2023-05-08T11:07:54.810Z,20.55
2023-05-08T11:10:07.002Z,20.72
2023-05-08T11:12:23.511Z,21.14
2023-05-08T11:14:25.780Z,21.55
2023-05-08T11:16:56.624Z,21.63
2023-05-08T11:19:17.825Z,21.70
2023-05-08T11:21:23.753Z,21.15
2023-05-08T11:23:27.134Z,21.00
2023-05-08T11:25:46.946Z,21.21
2023-05-08T11:27:48.486Z,21.43
2023-05-08T11:30:19.320Z,21.31
2023-05-08T11:32:21.135Z,21.39
2023-05-08T11:34:46.036Z,21.26
2023-05-08T11:37:02.086Z,21.36
2023-05-08T11:39:12.837Z,21.70
2023-05-08T11:41:22.285Z,21.84
2023-05-08T11:43:32.852Z,21.95
2023-05-08T11:45:35.001Z,22.01
2023-05-08T11:47:46.187Z,22.15
2023-05-08T11:49:47.823Z,22.30
2023-05-08T11:51:58.092Z,22.38
2023-05-08T11:54:00.996Z,22.40
2023-05-08T11:56:03.558Z,22.46
2023-05-08T11:58:12.518Z,22.78
2023-05-08T12:00:14.847Z,22.64
2023-05-08T12:02:16.697Z,21.89
2023-05-08T12:04:18.519Z,22.01
2023-05-08T12:06:20.340Z,22.02
2023-05-08T12:08:21.976Z,22.27
2023-05-08T12:10:23.771Z,21.97
2023-05-08T12:12:36.913Z,21.63
2023-05-08T12:14:38.559Z,21.74
2023-05-08T12:16:40.268Z,21.63
2023-05-08T12:18:43.303Z,21.20
2023-05-08T12:20:45.099Z,21.41
2023-05-08T12:22:51.711Z,21.63
2023-05-08T12:24:53.405Z,21.65
2023-05-08T12:26:57.896Z,21.32
2023-05-08T12:28:59.482Z,21.17
2023-05-08T12:31:01.648Z,21.18
2023-05-08T12:33:04.713Z,21.15
2023-05-08T12:35:10.983Z,21.38
2023-05-08T12:37:12.647Z,21.53
2023-05-08T12:39:16.535Z,21.67
2023-05-08T12:41:24.230Z,21.93
2023-05-08T12:43:33.788Z,22.19
2023-05-08T12:45:39.973Z,22.25
2023-05-08T12:47:41.630Z,22.04
2023-05-08T12:49:43.265Z,21.74
2023-05-08T12:51:48.055Z,21.63
2023-05-08T12:53:50.423Z,21.57
2023-05-08T12:55:57.029Z,21.65
2023-05-08T12:58:05.548Z,21.83
2023-05-08T13:00:07.753Z,21.96
2023-05-08T13:02:22.569Z,22.09
2023-05-08T13:04:24.283Z,22.16
2023-05-08T13:06:26.037Z,22.25
2023-05-08T13:08:35.528Z,22.18
2023-05-08T13:10:49.522Z,22.18
2023-05-08T13:12:51.176Z,22.08
2023-05-08T13:14:52.792Z,21.85
2023-05-08T13:16:54.558Z,21.30
2023-05-08T13:18:56.116Z,20.24
2023-05-08T13:20:58.257Z,19.79
2023-05-08T13:22:59.899Z,19.51
2023-05-08T13:25:01.552Z,19.23
2023-05-08T13:27:03.225Z,19.09
2023-05-08T13:29:04.829Z,19.11
2023-05-08T13:31:06.424Z,18.99
2023-05-08T13:33:08.225Z,18.90
2023-05-08T13:35:09.971Z,18.94
2023-05-08T13:37:11.659Z,18.86
2023-05-08T13:39:13.190Z,18.95
2023-05-08T13:41:14.817Z,19.12
2023-05-08T13:43:16.584Z,19.05
2023-05-08T13:45:20.923Z,19.00
2023-05-08T13:47:22.574Z,18.91
2023-05-08T13:49:27.720Z,18.86
2023-05-08T13:51:29.349Z,18.87
2023-05-08T13:53:30.895Z,18.94
2023-05-08T13:55:32.531Z,19.05
2023-05-08T13:57:34.456Z,18.99
2023-05-08T13:59:36.063Z,18.92
2023-05-08T14:01:37.795Z,18.83
2023-05-08T14:03:39.585Z,18.79
2023-05-08T14:05:41.285Z,18.31
2023-05-08T14:07:43.805Z,18.25
2023-05-08T14:09:46.153Z,18.21
2023-05-08T14:11:47.856Z,18.13
2023-05-08T14:13:49.458Z,18.27
2023-05-08T14:15:51.097Z,18.24
2023-05-08T14:17:52.766Z,18.07
2023-05-08T14:19:54.375Z,17.86
2023-05-08T14:21:55.989Z,17.69
2023-05-08T14:23:57.675Z,17.61
2023-05-08T14:25:59.297Z,17.45
2023-05-08T14:28:00.880Z,17.20
2023-05-08T14:30:02.553Z,17.03
2023-05-08T14:32:04.535Z,17.06
2023-05-08T14:34:06.154Z,17.13
2023-05-08T14:36:08.252Z,16.96
2023-05-08T14:38:13.038Z,16.92
2023-05-08T14:40:14.679Z,17.05
2023-05-08T14:42:22.820Z,17.11
2023-05-08T14:44:25.208Z,17.08
2023-05-08T14:46:27.097Z,17.07
2023-05-08T14:48:28.825Z,16.90
2023-05-08T14:50:30.556Z,16.88
2023-05-08T14:52:32.198Z,16.90
2023-05-08T14:54:35.661Z,16.77
2023-05-08T14:58:59.098Z,16.94
2023-05-08T15:01:00.851Z,17.05
2023-05-08T15:03:02.854Z,17.14
2023-05-08T15:05:11.080Z,17.23
2023-05-08T15:07:18.880Z,17.36
2023-05-08T15:09:20.505Z,17.44
2023-05-08T15:13:29.462Z,17.36
2023-05-08T15:15:31.103Z,17.43
2023-05-08T15:17:35.627Z,17.45
2023-05-08T15:19:37.345Z,17.53
2023-05-08T15:21:38.884Z,17.60
2023-05-08T15:23:40.579Z,17.64
2023-05-08T15:25:42.172Z,17.62
2023-05-08T15:27:43.812Z,17.43
2023-05-08T15:29:45.428Z,17.27
2023-05-08T15:31:47.115Z,16.98
2023-05-08T15:33:48.890Z,16.88
2023-05-08T15:35:50.529Z,16.73
2023-05-08T15:37:52.180Z,16.73
2023-05-08T15:39:53.755Z,16.76
2023-05-08T15:41:55.388Z,16.60
2023-05-08T15:43:56.991Z,16.54
2023-05-08T15:45:58.566Z,16.48
2023-05-08T15:48:00.296Z,16.50
2023-05-08T15:50:01.977Z,16.52
2023-05-08T15:52:03.654Z,16.50
2023-05-08T15:54:05.461Z,16.50
2023-05-08T15:56:07.212Z,16.47
2023-05-08T15:58:08.809Z,16.54
2023-05-08T16:00:11.041Z,16.54
2023-05-08T16:02:12.669Z,16.48
2023-05-08T16:04:14.392Z,16.48
2023-05-08T16:06:16.612Z,16.48
2023-05-08T16:08:18.712Z,16.52
2023-05-08T16:10:20.401Z,16.52
2023-05-08T16:12:21.995Z,16.52
2023-05-08T16:14:23.592Z,16.27
2023-05-08T16:16:26.699Z,16.27
2023-05-08T16:18:28.446Z,16.18
2023-05-08T16:20:30.309Z,16.21
2023-05-08T16:22:32.399Z,16.25
2023-05-08T16:24:34.033Z,16.21
2023-05-08T16:26:35.630Z,16.24
2023-05-08T16:28:37.251Z,16.15
2023-05-08T16:30:38.797Z,16.18
2023-05-08T16:32:40.607Z,16.21
2023-05-08T16:34:42.854Z,16.09
2023-05-08T16:36:44.534Z,15.96
2023-05-08T16:38:46.183Z,15.96
2023-05-08T16:40:47.818Z,16.05
2023-05-08T16:42:49.388Z,16.12
2023-05-08T16:44:51.181Z,15.89
2023-05-08T16:46:52.927Z,15.80
2023-05-08T16:48:54.496Z,15.63
2023-05-08T16:50:57.167Z,15.72
2023-05-08T16:52:58.999Z,15.74
2023-05-08T16:55:01.232Z,15.82
2023-05-08T16:57:02.901Z,15.77
2023-05-08T16:59:06.679Z,15.64
2023-05-08T17:01:08.224Z,15.63
2023-05-08T17:03:09.906Z,15.15
2023-05-08T17:05:11.785Z,15.18
2023-05-08T17:07:17.061Z,15.04
2023-05-08T17:09:18.703Z,15.07
2023-05-08T17:11:20.317Z,15.11
2023-05-08T17:13:21.961Z,15.13
2023-05-08T17:15:23.596Z,15.15
2023-05-08T17:17:25.285Z,15.12
2023-05-08T17:19:26.859Z,15.03
2023-05-08T17:21:30.258Z,15.04
2023-05-08T17:23:31.875Z,15.07
2023-05-08T17:25:33.540Z,15.06
2023-05-08T17:27:36.007Z,15.07
2023-05-08T17:29:37.583Z,14.86
2023-05-08T17:31:39.272Z,14.78
2023-05-08T17:33:40.897Z,14.59
2023-05-08T17:35:42.701Z,14.72
2023-05-08T17:37:44.270Z,14.85
2023-05-08T17:39:46.002Z,14.99
2023-05-08T17:41:49.521Z,15.07
2023-05-08T17:43:54.003Z,15.04
2023-05-08T17:45:55.608Z,15.04
2023-05-08T17:47:57.244Z,14.95
2023-05-08T17:49:58.902Z,14.89
2023-05-08T17:52:00.495Z,14.81
2023-05-08T17:54:02.266Z,14.61
2023-05-08T17:56:03.940Z,14.57
2023-05-08T17:58:05.582Z,14.68
2023-05-08T18:00:07.913Z,14.85
2023-05-08T18:02:09.652Z,14.82
2023-05-08T18:04:11.317Z,14.82
2023-05-08T18:06:19.033Z,14.61
2023-05-08T18:08:20.761Z,14.61
2023-05-08T18:10:22.982Z,14.64
2023-05-08T18:12:24.542Z,14.64
2023-05-08T18:14:29.851Z,14.69
2023-05-08T18:16:31.458Z,14.62
2023-05-08T18:18:33.155Z,14.76
2023-05-08T18:20:34.948Z,14.85
2023-05-08T18:22:36.780Z,15.01
2023-05-08T18:24:38.417Z,15.19
2023-05-08T18:26:40.097Z,15.35
2023-05-08T18:28:41.894Z,15.49
2023-05-08T18:30:43.859Z,15.57
2023-05-08T18:32:45.546Z,15.60
2023-05-08T18:34:47.121Z,15.65
2023-05-08T18:36:50.524Z,15.71
2023-05-08T18:38:52.537Z,15.79
2023-05-08T18:40:54.134Z,15.83
2023-05-08T18:42:55.754Z,15.83
2023-05-08T18:44:57.385Z,15.81
2023-05-08T18:46:59.218Z,15.83
2023-05-08T18:49:00.951Z,15.86
2023-05-08T18:51:02.670Z,15.86
2023-05-08T18:53:04.267Z,15.84
2023-05-08T18:55:06.329Z,15.87
2023-05-08T18:57:07.928Z,15.90
2023-05-08T18:59:09.507Z,15.87
2023-05-08T19:01:11.183Z,15.81
2023-05-08T19:03:12.897Z,15.63
2023-05-08T19:05:14.657Z,15.38
2023-05-08T19:07:16.231Z,15.27
2023-05-08T19:09:17.874Z,15.25
2023-05-08T19:11:19.561Z,15.18
2023-05-08T19:13:21.233Z,15.17
2023-05-08T19:15:22.892Z,15.08
2023-05-08T19:17:24.524Z,14.91
2023-05-08T19:19:26.115Z,14.80
2023-05-08T19:21:27.682Z,14.75
2023-05-08T19:23:29.223Z,14.67
2023-05-08T19:25:30.887Z,14.60
2023-05-08T19:27:32.479Z,14.66
2023-05-08T19:29:35.455Z,14.71
2023-05-08T19:31:37.242Z,14.76
2023-05-08T19:33:38.906Z,14.82
2023-05-08T19:35:40.508Z,14.85
2023-05-08T19:37:42.133Z,14.89
2023-05-08T19:39:43.756Z,14.91
2023-05-08T19:41:45.370Z,14.68
2023-05-08T19:43:46.963Z,14.49
2023-05-08T19:45:48.619Z,14.44
2023-05-08T19:47:50.341Z,14.56
2023-05-08T19:49:52.050Z,14.65
2023-05-08T19:51:53.645Z,14.66
2023-05-08T19:53:55.214Z,14.66
2023-05-08T19:55:56.775Z,14.65
2023-05-08T19:57:58.334Z,14.72
2023-05-08T20:00:00.152Z,14.67
2023-05-08T20:02:01.880Z,14.43
2023-05-08T20:04:03.706Z,14.43
2023-05-08T20:06:05.476Z,14.43
2023-05-08T20:08:07.143Z,14.28
2023-05-08T20:10:09.167Z,14.27
2023-05-08T20:12:10.970Z,14.18
2023-05-08T20:14:13.019Z,14.20
2023-05-08T20:16:14.625Z,14.19
2023-05-08T20:18:16.419Z,14.28
2023-05-08T20:20:18.151Z,14.30
2023-05-08T20:22:19.734Z,14.24
2023-05-08T20:24:21.362Z,14.27
2023-05-08T20:26:23.502Z,14.34
2023-05-08T20:28:26.223Z,14.45
2023-05-08T20:30:27.890Z,14.58
2023-05-08T20:32:29.579Z,14.73
2023-05-08T20:34:31.161Z,14.86
2023-05-08T20:36:32.950Z,14.97
2023-05-08T20:38:36.541Z,15.09
2023-05-08T20:40:38.251Z,15.07
2023-05-08T20:42:43.239Z,15.04
2023-05-08T20:44:44.868Z,15.03
2023-05-08T20:46:46.506Z,15.03
2023-05-08T20:48:48.109Z,15.05
2023-05-08T20:50:49.736Z,14.97
2023-05-08T20:52:51.882Z,14.89
2023-05-08T20:54:53.456Z,14.60
2023-05-08T20:56:55.055Z,14.56
2023-05-08T20:58:56.630Z,14.46
2023-05-08T21:00:58.498Z,14.51
2023-05-08T21:03:00.608Z,14.54
2023-05-08T21:05:02.268Z,14.58
2023-05-08T21:07:03.967Z,14.59
2023-05-08T21:09:07.085Z,14.67
2023-05-08T21:11:08.840Z,14.77
2023-05-08T21:13:10.452Z,14.83
2023-05-08T21:15:12.246Z,14.86
2023-05-08T21:17:13.949Z,14.92
2023-05-08T21:19:17.499Z,14.98
2023-05-08T21:21:20.037Z,15.04
2023-05-08T21:23:21.856Z,15.09
2023-05-08T21:25:23.651Z,15.12
2023-05-08T21:27:28.320Z,15.17
2023-05-08T21:29:29.922Z,15.20
2023-05-08T21:31:32.616Z,15.05
2023-05-08T21:33:34.261Z,15.04
2023-05-08T21:35:36.431Z,15.02
2023-05-08T21:37:38.681Z,15.04
2023-05-08T21:39:41.263Z,15.06
2023-05-08T21:41:43.702Z,15.08
2023-05-08T21:43:45.444Z,15.09
2023-05-08T21:45:47.007Z,15.10
2023-05-08T21:47:48.750Z,15.15
2023-05-08T21:49:50.332Z,15.20
2023-05-08T21:51:53.052Z,15.21
2023-05-08T21:53:54.689Z,15.24
2023-05-08T21:55:56.260Z,15.21
2023-05-08T21:57:57.834Z,15.02
2023-05-08T21:59:59.452Z,14.85
2023-05-08T22:02:01.096Z,14.77
2023-05-08T22:04:02.788Z,14.76
2023-05-08T22:06:04.530Z,14.74
2023-05-08T22:08:06.411Z,14.74
2023-05-08T22:10:09.428Z,14.76
2023-05-08T22:12:11.122Z,14.79
2023-05-08T22:14:12.837Z,14.67
2023-05-08T22:16:14.459Z,14.44
2023-05-08T22:18:16.067Z,14.44
2023-05-08T22:20:18.208Z,14.51
2023-05-08T22:22:19.759Z,14.58
2023-05-08T22:24:23.408Z,14.67
2023-05-08T22:26:25.026Z,14.72
2023-05-08T22:28:26.840Z,14.70
2023-05-08T22:30:29.306Z,14.50
2023-05-08T22:32:31.119Z,14.34
2023-05-08T22:34:32.769Z,14.29
2023-05-08T22:36:34.477Z,14.30
2023-05-08T22:38:36.127Z,14.20
2023-05-08T22:40:37.931Z,14.13
2023-05-08T22:42:39.907Z,14.03
2023-05-08T22:44:41.857Z,14.01
2023-05-08T22:46:43.620Z,13.91
2023-05-08T22:48:45.859Z,13.92
2023-05-08T22:50:47.429Z,13.88
2023-05-08T22:52:49.010Z,13.91
2023-05-08T22:54:50.701Z,14.02
2023-05-08T22:56:52.267Z,14.14
2023-05-08T22:58:56.589Z,14.24
2023-05-08T23:00:59.727Z,14.26
2023-05-08T23:03:01.512Z,14.32
2023-05-08T23:05:03.943Z,14.39
2023-05-08T23:07:05.602Z,14.49
2023-05-08T23:09:07.160Z,14.53
2023-05-08T23:11:08.780Z,14.56
2023-05-08T23:13:10.472Z,14.59
2023-05-08T23:15:12.997Z,14.66
2023-05-08T23:17:14.834Z,14.70
2023-05-08T23:19:16.402Z,14.76
2023-05-08T23:21:17.990Z,14.80
2023-05-08T23:23:19.569Z,14.86
2023-05-08T23:25:21.242Z,14.86
2023-05-08T23:27:22.950Z,14.85
2023-05-08T23:29:24.577Z,14.85
2023-05-08T23:31:26.295Z,14.84
2023-05-08T23:33:28.005Z,14.85
2023-05-08T23:35:29.599Z,14.84
2023-05-08T23:37:31.208Z,14.84
2023-05-08T23:39:37.780Z,14.88
2023-05-08T23:41:39.414Z,14.86
2023-05-08T23:43:41.027Z,14.85
2023-05-08T23:45:42.670Z,14.87
2023-05-08T23:47:44.259Z,14.88
2023-05-08T23:49:45.896Z,14.90
2023-05-08T23:51:47.505Z,14.87
2023-05-08T23:53:50.161Z,14.92
2023-05-08T23:55:52.472Z,14.95
2023-05-08T23:57:54.060Z,14.94
2023-05-08T23:59:55.653Z,14.96
